sensor_id;sensor_type;location;lat;lon;timestamp;temperature;humidity
38938;DHT22;24727;51.974;20.868;2022-09-16T00:01:35;11.70;70.90
38938;DHT22;24727;51.974;20.868;2022-09-16T00:04:01;11.70;70.30
38938;DHT22;24727;51.974;20.868;2022-09-16T00:06:28;11.70;72.10
38938;DHT22;24727;51.974;20.868;2022-09-16T00:08:59;11.60;71.80
38938;DHT22;24727;51.974;20.868;2022-09-16T00:11:31;11.60;74.10
38938;DHT22;24727;51.974;20.868;2022-09-16T00:13:59;11.60;75.60
38938;DHT22;24727;51.974;20.868;2022-09-16T00:16:26;11.60;73.30
38938;DHT22;24727;51.974;20.868;2022-09-16T00:18:58;11.60;72.10
38938;DHT22;24727;51.974;20.868;2022-09-16T00:21:26;11.60;75.10
38938;DHT22;24727;51.974;20.868;2022-09-16T00:23:53;11.60;74.30
38938;DHT22;24727;51.974;20.868;2022-09-16T00:26:19;11.50;73.90
38938;DHT22;24727;51.974;20.868;2022-09-16T00:28:49;11.50;75.60
38938;DHT22;24727;51.974;20.868;2022-09-16T00:31:15;11.50;73.90
38938;DHT22;24727;51.974;20.868;2022-09-16T00:33:42;11.50;72.60
38938;DHT22;24727;51.974;20.868;2022-09-16T00:36:17;11.50;72.00
38938;DHT22;24727;51.974;20.868;2022-09-16T00:38:43;11.40;72.30
38938;DHT22;24727;51.974;20.868;2022-09-16T00:41:15;11.40;70.50
38938;DHT22;24727;51.974;20.868;2022-09-16T00:46:39;11.30;73.30
38938;DHT22;24727;51.974;20.868;2022-09-16T00:49:25;11.40;76.40
38938;DHT22;24727;51.974;20.868;2022-09-16T00:51:59;11.30;76.70
38938;DHT22;24727;51.974;20.868;2022-09-16T00:54:29;11.30;79.40
38938;DHT22;24727;51.974;20.868;2022-09-16T00:56:57;11.30;79.60
38938;DHT22;24727;51.974;20.868;2022-09-16T00:59:26;11.30;77.60
38938;DHT22;24727;51.974;20.868;2022-09-16T01:01:57;11.30;75.40
38938;DHT22;24727;51.974;20.868;2022-09-16T01:04:30;11.30;72.90
38938;DHT22;24727;51.974;20.868;2022-09-16T01:06:57;11.30;73.10
38938;DHT22;24727;51.974;20.868;2022-09-16T01:09:26;11.30;73.90
38938;DHT22;24727;51.974;20.868;2022-09-16T01:11:58;11.30;75.80
38938;DHT22;24727;51.974;20.868;2022-09-16T01:14:25;11.30;74.10
38938;DHT22;24727;51.974;20.868;2022-09-16T01:17:36;11.30;74.00
38938;DHT22;24727;51.974;20.868;2022-09-16T01:20:26;11.40;70.60
38938;DHT22;24727;51.974;20.868;2022-09-16T01:36:52;11.40;55.80
38938;DHT22;24727;51.974;20.868;2022-09-16T01:42:38;11.40;51.30
38938;DHT22;24727;51.974;20.868;2022-09-16T01:45:22;11.40;52.00
38938;DHT22;24727;51.974;20.868;2022-09-16T01:50:40;11.30;52.40
38938;DHT22;24727;51.974;20.868;2022-09-16T01:55:59;11.30;51.60
38938;DHT22;24727;51.974;20.868;2022-09-16T01:59:00;11.30;51.00
38938;DHT22;24727;51.974;20.868;2022-09-16T02:04:24;11.30;58.80
38938;DHT22;24727;51.974;20.868;2022-09-16T02:06:53;11.30;60.50
38938;DHT22;24727;51.974;20.868;2022-09-16T02:09:26;11.30;60.10
38938;DHT22;24727;51.974;20.868;2022-09-16T02:11:56;11.30;68.70
38938;DHT22;24727;51.974;20.868;2022-09-16T02:14:28;11.30;68.00
38938;DHT22;24727;51.974;20.868;2022-09-16T02:17:01;11.30;66.20
38938;DHT22;24727;51.974;20.868;2022-09-16T02:19:38;11.30;66.10
38938;DHT22;24727;51.974;20.868;2022-09-16T02:22:15;11.30;66.90
38938;DHT22;24727;51.974;20.868;2022-09-16T02:24:45;11.20;72.20
38938;DHT22;24727;51.974;20.868;2022-09-16T02:27:17;11.10;75.80
38938;DHT22;24727;51.974;20.868;2022-09-16T02:29:57;11.10;78.70
38938;DHT22;24727;51.974;20.868;2022-09-16T02:32:27;11.10;79.50
38938;DHT22;24727;51.974;20.868;2022-09-16T02:34:57;11.10;80.20
38938;DHT22;24727;51.974;20.868;2022-09-16T02:37:36;11.10;80.30
38938;DHT22;24727;51.974;20.868;2022-09-16T02:40:09;11.10;82.70
38938;DHT22;24727;51.974;20.868;2022-09-16T02:42:37;11.00;84.10
38938;DHT22;24727;51.974;20.868;2022-09-16T02:45:03;11.10;84.90
38938;DHT22;24727;51.974;20.868;2022-09-16T02:48:15;11.00;85.80
38938;DHT22;24727;51.974;20.868;2022-09-16T02:53:03;11.00;88.10
38938;DHT22;24727;51.974;20.868;2022-09-16T02:55:55;11.00;88.80
38938;DHT22;24727;51.974;20.868;2022-09-16T02:58:22;10.90;89.40
38938;DHT22;24727;51.974;20.868;2022-09-16T03:00:51;10.90;89.60
38938;DHT22;24727;51.974;20.868;2022-09-16T03:03:19;10.90;90.30
38938;DHT22;24727;51.974;20.868;2022-09-16T03:08:42;10.80;90.80
38938;DHT22;24727;51.974;20.868;2022-09-16T03:11:23;10.80;91.50
38938;DHT22;24727;51.974;20.868;2022-09-16T03:19:50;10.70;91.90
38938;DHT22;24727;51.974;20.868;2022-09-16T03:25:35;10.70;92.50
38938;DHT22;24727;51.974;20.868;2022-09-16T03:28:11;10.60;92.50
38938;DHT22;24727;51.974;20.868;2022-09-16T03:30:45;10.60;92.60
38938;DHT22;24727;51.974;20.868;2022-09-16T03:33:22;10.50;93.00
38938;DHT22;24727;51.974;20.868;2022-09-16T03:35:51;10.50;93.30
38938;DHT22;24727;51.974;20.868;2022-09-16T03:38:23;10.50;93.60
38938;DHT22;24727;51.974;20.868;2022-09-16T03:40:50;10.60;93.40
38938;DHT22;24727;51.974;20.868;2022-09-16T03:43:16;10.60;92.40
38938;DHT22;24727;51.974;20.868;2022-09-16T03:45:43;10.50;93.10
38938;DHT22;24727;51.974;20.868;2022-09-16T03:48:11;10.50;93.20
38938;DHT22;24727;51.974;20.868;2022-09-16T03:50:37;10.40;93.20
38938;DHT22;24727;51.974;20.868;2022-09-16T03:53:03;10.40;93.60
38938;DHT22;24727;51.974;20.868;2022-09-16T03:55:29;10.40;93.50
38938;DHT22;24727;51.974;20.868;2022-09-16T03:57:55;10.40;93.50
38938;DHT22;24727;51.974;20.868;2022-09-16T04:00:22;10.40;93.20
38938;DHT22;24727;51.974;20.868;2022-09-16T04:02:48;10.40;93.70
38938;DHT22;24727;51.974;20.868;2022-09-16T04:05:14;10.40;93.90
38938;DHT22;24727;51.974;20.868;2022-09-16T04:07:40;10.40;93.90
38938;DHT22;24727;51.974;20.868;2022-09-16T04:10:06;10.50;94.40
38938;DHT22;24727;51.974;20.868;2022-09-16T04:12:33;10.50;94.00
38938;DHT22;24727;51.974;20.868;2022-09-16T04:14:59;10.50;94.20
38938;DHT22;24727;51.974;20.868;2022-09-16T04:17:25;10.50;94.00
38938;DHT22;24727;51.974;20.868;2022-09-16T04:19:51;10.50;93.30
38938;DHT22;24727;51.974;20.868;2022-09-16T04:22:17;10.50;92.90
38938;DHT22;24727;51.974;20.868;2022-09-16T04:24:44;10.60;93.20
38938;DHT22;24727;51.974;20.868;2022-09-16T04:27:10;10.60;91.10
38938;DHT22;24727;51.974;20.868;2022-09-16T04:29:37;10.70;91.60
38938;DHT22;24727;51.974;20.868;2022-09-16T04:32:03;10.70;91.20
38938;DHT22;24727;51.974;20.868;2022-09-16T04:34:29;10.70;90.00
38938;DHT22;24727;51.974;20.868;2022-09-16T04:36:57;10.70;91.10
38938;DHT22;24727;51.974;20.868;2022-09-16T04:39:23;10.70;90.20
38938;DHT22;24727;51.974;20.868;2022-09-16T04:41:49;10.70;90.60
38938;DHT22;24727;51.974;20.868;2022-09-16T04:44:15;10.70;89.90
38938;DHT22;24727;51.974;20.868;2022-09-16T04:46:41;10.70;89.40
38938;DHT22;24727;51.974;20.868;2022-09-16T04:49:08;10.70;89.00
38938;DHT22;24727;51.974;20.868;2022-09-16T04:51:35;10.70;89.50
38938;DHT22;24727;51.974;20.868;2022-09-16T04:54:02;10.80;89.00
38938;DHT22;24727;51.974;20.868;2022-09-16T04:56:31;10.90;89.10
38938;DHT22;24727;51.974;20.868;2022-09-16T04:58:59;10.90;87.90
38938;DHT22;24727;51.974;20.868;2022-09-16T05:01:29;10.90;87.80
38938;DHT22;24727;51.974;20.868;2022-09-16T05:04:03;11.00;87.40
38938;DHT22;24727;51.974;20.868;2022-09-16T05:06:35;11.00;86.50
38938;DHT22;24727;51.974;20.868;2022-09-16T05:09:01;11.00;86.50
38938;DHT22;24727;51.974;20.868;2022-09-16T05:11:31;11.00;86.40
38938;DHT22;24727;51.974;20.868;2022-09-16T05:13:58;11.00;86.10
38938;DHT22;24727;51.974;20.868;2022-09-16T05:16:24;11.10;85.50
38938;DHT22;24727;51.974;20.868;2022-09-16T05:18:54;11.10;85.00
38938;DHT22;24727;51.974;20.868;2022-09-16T05:21:22;11.20;84.60
38938;DHT22;24727;51.974;20.868;2022-09-16T05:23:48;11.30;83.70
38938;DHT22;24727;51.974;20.868;2022-09-16T05:26:22;11.30;83.30
38938;DHT22;24727;51.974;20.868;2022-09-16T05:28:49;11.30;82.10
38938;DHT22;24727;51.974;20.868;2022-09-16T05:31:24;11.40;81.20
38938;DHT22;24727;51.974;20.868;2022-09-16T05:34:00;11.50;81.10
38938;DHT22;24727;51.974;20.868;2022-09-16T05:36:29;11.60;79.60
38938;DHT22;24727;51.974;20.868;2022-09-16T05:38:56;11.70;77.20
38938;DHT22;24727;51.974;20.868;2022-09-16T05:41:22;11.70;78.30
38938;DHT22;24727;51.974;20.868;2022-09-16T05:43:48;11.70;73.60
38938;DHT22;24727;51.974;20.868;2022-09-16T05:46:22;11.90;48.10
38938;DHT22;24727;51.974;20.868;2022-09-16T05:48:49;11.80;1.00
38938;DHT22;24727;51.974;20.868;2022-09-16T05:51:22;11.90;1.00
38938;DHT22;24727;51.974;20.868;2022-09-16T05:53:49;11.90;1.00
38938;DHT22;24727;51.974;20.868;2022-09-16T05:56:18;11.90;1.00
38938;DHT22;24727;51.974;20.868;2022-09-16T05:58:45;11.80;1.00
38938;DHT22;24727;51.974;20.868;2022-09-16T06:01:12;11.70;1.00
38938;DHT22;24727;51.974;20.868;2022-09-16T06:03:40;11.80;1.00
38938;DHT22;24727;51.974;20.868;2022-09-16T06:08:38;11.70;1.00
38938;DHT22;24727;51.974;20.868;2022-09-16T06:11:07;11.70;1.00
38938;DHT22;24727;51.974;20.868;2022-09-16T06:13:34;11.70;1.00
38938;DHT22;24727;51.974;20.868;2022-09-16T06:16:01;11.80;1.00
38938;DHT22;24727;51.974;20.868;2022-09-16T06:18:34;11.80;1.00
38938;DHT22;24727;51.974;20.868;2022-09-16T06:21:06;11.80;1.00
38938;DHT22;24727;51.974;20.868;2022-09-16T06:23:34;11.90;1.00
38938;DHT22;24727;51.974;20.868;2022-09-16T06:26:03;11.90;1.00
38938;DHT22;24727;51.974;20.868;2022-09-16T06:28:31;11.90;1.00
38938;DHT22;24727;51.974;20.868;2022-09-16T06:31:08;11.90;1.00
38938;DHT22;24727;51.974;20.868;2022-09-16T06:33:36;12.00;1.00
38938;DHT22;24727;51.974;20.868;2022-09-16T06:36:13;12.00;1.00
38938;DHT22;24727;51.974;20.868;2022-09-16T06:38:39;12.20;1.00
38938;DHT22;24727;51.974;20.868;2022-09-16T06:41:07;12.30;1.00
38938;DHT22;24727;51.974;20.868;2022-09-16T06:43:35;12.40;1.00
38938;DHT22;24727;51.974;20.868;2022-09-16T06:46:10;12.40;1.00
38938;DHT22;24727;51.974;20.868;2022-09-16T06:48:45;12.60;1.00
38938;DHT22;24727;51.974;20.868;2022-09-16T06:51:13;12.70;1.00
38938;DHT22;24727;51.974;20.868;2022-09-16T06:53:39;12.80;1.00
38938;DHT22;24727;51.974;20.868;2022-09-16T06:56:08;12.90;1.00
38938;DHT22;24727;51.974;20.868;2022-09-16T06:58:40;12.90;1.00
38938;DHT22;24727;51.974;20.868;2022-09-16T07:01:18;12.70;1.00
38938;DHT22;24727;51.974;20.868;2022-09-16T07:03:46;12.70;1.00
38938;DHT22;24727;51.974;20.868;2022-09-16T07:06:14;12.70;1.00
38938;DHT22;24727;51.974;20.868;2022-09-16T07:08:41;12.90;1.00
38938;DHT22;24727;51.974;20.868;2022-09-16T07:13:38;13.10;1.00
38938;DHT22;24727;51.974;20.868;2022-09-16T07:16:06;13.00;1.00
38938;DHT22;24727;51.974;20.868;2022-09-16T07:18:33;13.00;1.00
38938;DHT22;24727;51.974;20.868;2022-09-16T07:21:07;13.20;1.00
38938;DHT22;24727;51.974;20.868;2022-09-16T07:23:36;13.40;1.00
38938;DHT22;24727;51.974;20.868;2022-09-16T07:26:10;13.60;1.00
38938;DHT22;24727;51.974;20.868;2022-09-16T07:28:37;13.70;1.00
38938;DHT22;24727;51.974;20.868;2022-09-16T07:31:09;13.50;1.00
38938;DHT22;24727;51.974;20.868;2022-09-16T07:33:37;13.30;1.00
38938;DHT22;24727;51.974;20.868;2022-09-16T07:36:05;13.30;1.00
38938;DHT22;24727;51.974;20.868;2022-09-16T07:38:32;13.40;1.00
38938;DHT22;24727;51.974;20.868;2022-09-16T07:41:06;13.40;1.00
38938;DHT22;24727;51.974;20.868;2022-09-16T07:43:33;13.30;1.00
38938;DHT22;24727;51.974;20.868;2022-09-16T07:46:00;13.40;1.00
38938;DHT22;24727;51.974;20.868;2022-09-16T07:48:30;13.60;1.00
38938;DHT22;24727;51.974;20.868;2022-09-16T07:51:02;13.60;1.00
38938;DHT22;24727;51.974;20.868;2022-09-16T07:53:29;13.50;1.00
38938;DHT22;24727;51.974;20.868;2022-09-16T07:56:00;13.40;1.00
38938;DHT22;24727;51.974;20.868;2022-09-16T07:58:26;13.30;1.00
38938;DHT22;24727;51.974;20.868;2022-09-16T08:00:52;13.30;1.00
38938;DHT22;24727;51.974;20.868;2022-09-16T08:03:17;13.30;1.00
38938;DHT22;24727;51.974;20.868;2022-09-16T08:05:44;13.10;1.00
38938;DHT22;24727;51.974;20.868;2022-09-16T08:08:10;13.30;1.00
38938;DHT22;24727;51.974;20.868;2022-09-16T08:10:36;13.20;1.00
38938;DHT22;24727;51.974;20.868;2022-09-16T08:13:04;13.20;1.00
38938;DHT22;24727;51.974;20.868;2022-09-16T08:15:30;13.40;1.00
38938;DHT22;24727;51.974;20.868;2022-09-16T08:17:56;13.40;1.00
38938;DHT22;24727;51.974;20.868;2022-09-16T08:20:24;13.50;1.00
38938;DHT22;24727;51.974;20.868;2022-09-16T08:22:52;13.50;1.00
38938;DHT22;24727;51.974;20.868;2022-09-16T08:25:19;13.60;1.00
38938;DHT22;24727;51.974;20.868;2022-09-16T08:27:45;13.70;1.00
38938;DHT22;24727;51.974;20.868;2022-09-16T08:30:11;13.90;1.00
38938;DHT22;24727;51.974;20.868;2022-09-16T08:32:39;14.00;1.00
38938;DHT22;24727;51.974;20.868;2022-09-16T08:35:06;14.00;1.00
38938;DHT22;24727;51.974;20.868;2022-09-16T08:37:33;14.00;1.00
38938;DHT22;24727;51.974;20.868;2022-09-16T08:40:01;13.80;1.00
38938;DHT22;24727;51.974;20.868;2022-09-16T08:42:28;13.80;1.00
38938;DHT22;24727;51.974;20.868;2022-09-16T08:48:06;14.00;1.00
38938;DHT22;24727;51.974;20.868;2022-09-16T08:50:45;14.20;1.00
38938;DHT22;24727;51.974;20.868;2022-09-16T08:53:44;14.20;1.00
38938;DHT22;24727;51.974;20.868;2022-09-16T08:56:23;14.20;1.00
38938;DHT22;24727;51.974;20.868;2022-09-16T08:58:58;14.20;1.00
38938;DHT22;24727;51.974;20.868;2022-09-16T09:03:56;14.40;1.00
38938;DHT22;24727;51.974;20.868;2022-09-16T09:09:12;14.20;1.00
38938;DHT22;24727;51.974;20.868;2022-09-16T09:26:04;14.10;1.00
38938;DHT22;24727;51.974;20.868;2022-09-16T09:29:06;14.10;1.00
38938;DHT22;24727;51.974;20.868;2022-09-16T09:37:30;14.60;1.00
38938;DHT22;24727;51.974;20.868;2022-09-16T09:43:19;14.70;1.00
38938;DHT22;24727;51.974;20.868;2022-09-16T09:48:40;14.30;1.00
38938;DHT22;24727;51.974;20.868;2022-09-16T09:51:32;14.30;1.00
38938;DHT22;24727;51.974;20.868;2022-09-16T10:00:17;14.50;1.00
38938;DHT22;24727;51.974;20.868;2022-09-16T10:02:47;14.70;1.00
38938;DHT22;24727;51.974;20.868;2022-09-16T10:05:25;14.90;1.00
38938;DHT22;24727;51.974;20.868;2022-09-16T10:07:59;14.90;1.00
38938;DHT22;24727;51.974;20.868;2022-09-16T10:10:31;14.90;1.00
38938;DHT22;24727;51.974;20.868;2022-09-16T10:13:09;14.80;1.00
38938;DHT22;24727;51.974;20.868;2022-09-16T10:15:37;15.00;1.00
38938;DHT22;24727;51.974;20.868;2022-09-16T10:18:32;15.30;1.00
38938;DHT22;24727;51.974;20.868;2022-09-16T10:21:08;15.20;1.00
38938;DHT22;24727;51.974;20.868;2022-09-16T10:23:36;15.00;1.00
38938;DHT22;24727;51.974;20.868;2022-09-16T10:26:24;14.80;1.00
38938;DHT22;24727;51.974;20.868;2022-09-16T10:29:00;14.70;1.00
38938;DHT22;24727;51.974;20.868;2022-09-16T10:31:34;14.60;1.00
38938;DHT22;24727;51.974;20.868;2022-09-16T10:34:12;14.70;1.00
38938;DHT22;24727;51.974;20.868;2022-09-16T10:36:41;14.80;1.00
38938;DHT22;24727;51.974;20.868;2022-09-16T10:39:23;14.90;1.00
38938;DHT22;24727;51.974;20.868;2022-09-16T10:41:51;14.80;1.00
38938;DHT22;24727;51.974;20.868;2022-09-16T10:44:27;14.80;1.00
38938;DHT22;24727;51.974;20.868;2022-09-16T10:47:05;14.70;1.00
38938;DHT22;24727;51.974;20.868;2022-09-16T10:49:43;14.60;1.00
38938;DHT22;24727;51.974;20.868;2022-09-16T10:52:19;14.20;1.00
38938;DHT22;24727;51.974;20.868;2022-09-16T10:54:52;13.50;1.00
38938;DHT22;24727;51.974;20.868;2022-09-16T10:57:23;12.90;1.00
38938;DHT22;24727;51.974;20.868;2022-09-16T11:00:11;12.80;1.00
38938;DHT22;24727;51.974;20.868;2022-09-16T11:14:33;13.20;1.00
38938;DHT22;24727;51.974;20.868;2022-09-16T11:17:10;13.50;1.00
38938;DHT22;24727;51.974;20.868;2022-09-16T11:28:01;13.80;1.00
38938;DHT22;24727;51.974;20.868;2022-09-16T11:30:39;13.80;1.00
38938;DHT22;24727;51.974;20.868;2022-09-16T12:22:46;14.80;1.00
38938;DHT22;24727;51.974;20.868;2022-09-16T12:25:28;14.90;1.00
38938;DHT22;24727;51.974;20.868;2022-09-16T12:28:18;15.00;1.00
38938;DHT22;24727;51.974;20.868;2022-09-16T12:30:47;14.90;1.00
38938;DHT22;24727;51.974;20.868;2022-09-16T12:33:25;14.80;1.00
38938;DHT22;24727;51.974;20.868;2022-09-16T12:36:11;14.70;1.00
38938;DHT22;24727;51.974;20.868;2022-09-16T12:38:39;14.60;1.00
38938;DHT22;24727;51.974;20.868;2022-09-16T12:41:09;14.60;1.00
38938;DHT22;24727;51.974;20.868;2022-09-16T12:46:17;14.70;1.00
38938;DHT22;24727;51.974;20.868;2022-09-16T12:49:01;15.20;1.00
38938;DHT22;24727;51.974;20.868;2022-09-16T12:55:05;15.80;1.00
38938;DHT22;24727;51.974;20.868;2022-09-16T13:00:42;16.10;1.00
38938;DHT22;24727;51.974;20.868;2022-09-16T13:03:18;16.20;1.00
38938;DHT22;24727;51.974;20.868;2022-09-16T13:05:50;16.20;1.00
38938;DHT22;24727;51.974;20.868;2022-09-16T13:08:21;16.20;1.00
38938;DHT22;24727;51.974;20.868;2022-09-16T13:10:56;16.30;1.00
38938;DHT22;24727;51.974;20.868;2022-09-16T13:13:36;15.90;1.00
38938;DHT22;24727;51.974;20.868;2022-09-16T13:16:05;15.50;1.00
38938;DHT22;24727;51.974;20.868;2022-09-16T13:18:41;15.30;1.00
38938;DHT22;24727;51.974;20.868;2022-09-16T13:21:38;15.10;1.00
38938;DHT22;24727;51.974;20.868;2022-09-16T13:24:26;14.90;1.00
38938;DHT22;24727;51.974;20.868;2022-09-16T13:26:56;14.90;1.00
38938;DHT22;24727;51.974;20.868;2022-09-16T13:29:42;14.90;1.00
38938;DHT22;24727;51.974;20.868;2022-09-16T13:32:37;14.90;1.00
38938;DHT22;24727;51.974;20.868;2022-09-16T13:37:58;15.10;1.00
38938;DHT22;24727;51.974;20.868;2022-09-16T13:40:35;15.40;1.00
38938;DHT22;24727;51.974;20.868;2022-09-16T13:45:40;15.60;1.00
38938;DHT22;24727;51.974;20.868;2022-09-16T13:48:16;15.50;1.00
38938;DHT22;24727;51.974;20.868;2022-09-16T13:50:54;15.30;1.00
38938;DHT22;24727;51.974;20.868;2022-09-16T13:53:33;15.40;1.00
38938;DHT22;24727;51.974;20.868;2022-09-16T14:01:44;15.90;1.00
38938;DHT22;24727;51.974;20.868;2022-09-16T14:10:09;16.10;1.00
38938;DHT22;24727;51.974;20.868;2022-09-16T14:12:58;15.90;1.00
38938;DHT22;24727;51.974;20.868;2022-09-16T14:15:27;15.60;1.00
38938;DHT22;24727;51.974;20.868;2022-09-16T14:17:58;15.40;1.00
38938;DHT22;24727;51.974;20.868;2022-09-16T14:20:26;15.20;1.00
38938;DHT22;24727;51.974;20.868;2022-09-16T14:23:01;15.10;1.00
38938;DHT22;24727;51.974;20.868;2022-09-16T14:25:31;15.20;1.00
38938;DHT22;24727;51.974;20.868;2022-09-16T14:28:17;15.30;1.00
38938;DHT22;24727;51.974;20.868;2022-09-16T14:30:51;15.60;1.00
38938;DHT22;24727;51.974;20.868;2022-09-16T14:33:23;15.60;1.00
38938;DHT22;24727;51.974;20.868;2022-09-16T14:35:52;15.60;1.00
38938;DHT22;24727;51.974;20.868;2022-09-16T14:38:25;15.60;1.00
38938;DHT22;24727;51.974;20.868;2022-09-16T14:40:55;15.50;1.00
38938;DHT22;24727;51.974;20.868;2022-09-16T14:43:21;15.40;1.00
38938;DHT22;24727;51.974;20.868;2022-09-16T14:45:52;15.40;1.00
38938;DHT22;24727;51.974;20.868;2022-09-16T14:48:23;15.30;1.00
38938;DHT22;24727;51.974;20.868;2022-09-16T14:50:50;15.40;1.00
38938;DHT22;24727;51.974;20.868;2022-09-16T14:53:26;15.30;1.00
38938;DHT22;24727;51.974;20.868;2022-09-16T14:55:53;15.30;1.00
38938;DHT22;24727;51.974;20.868;2022-09-16T14:58:22;15.30;1.00
38938;DHT22;24727;51.974;20.868;2022-09-16T15:01:08;15.20;1.00
38938;DHT22;24727;51.974;20.868;2022-09-16T15:04:14;15.10;1.00
38938;DHT22;24727;51.974;20.868;2022-09-16T15:06:43;15.00;1.00
38938;DHT22;24727;51.974;20.868;2022-09-16T15:09:23;15.00;1.00
38938;DHT22;24727;51.974;20.868;2022-09-16T15:12:01;15.10;1.00
38938;DHT22;24727;51.974;20.868;2022-09-16T15:14:28;15.20;1.00
38938;DHT22;24727;51.974;20.868;2022-09-16T15:16:59;15.40;1.00
38938;DHT22;24727;51.974;20.868;2022-09-16T15:19:36;15.60;1.00
38938;DHT22;24727;51.974;20.868;2022-09-16T15:22:07;15.60;1.00
38938;DHT22;24727;51.974;20.868;2022-09-16T15:24:39;15.50;1.00
38938;DHT22;24727;51.974;20.868;2022-09-16T15:27:07;15.40;1.00
38938;DHT22;24727;51.974;20.868;2022-09-16T15:29:40;15.40;1.00
38938;DHT22;24727;51.974;20.868;2022-09-16T15:32:21;15.30;1.00
38938;DHT22;24727;51.974;20.868;2022-09-16T15:35:12;15.20;1.00
38938;DHT22;24727;51.974;20.868;2022-09-16T15:37:41;15.20;1.00
38938;DHT22;24727;51.974;20.868;2022-09-16T15:40:31;15.10;1.00
38938;DHT22;24727;51.974;20.868;2022-09-16T15:43:25;15.00;1.00
38938;DHT22;24727;51.974;20.868;2022-09-16T15:45:59;14.80;1.00
38938;DHT22;24727;51.974;20.868;2022-09-16T15:48:31;14.80;1.00
38938;DHT22;24727;51.974;20.868;2022-09-16T15:51:27;14.70;1.00
38938;DHT22;24727;51.974;20.868;2022-09-16T15:53:51;14.60;1.00
38938;DHT22;24727;51.974;20.868;2022-09-16T15:58:56;14.30;1.00
38938;DHT22;24727;51.974;20.868;2022-09-16T16:01:45;14.30;1.00
38938;DHT22;24727;51.974;20.868;2022-09-16T16:04:20;14.20;1.00
38938;DHT22;24727;51.974;20.868;2022-09-16T16:06:52;14.30;1.00
38938;DHT22;24727;51.974;20.868;2022-09-16T16:12:11;14.30;1.00
38938;DHT22;24727;51.974;20.868;2022-09-16T16:14:39;14.30;1.00
38938;DHT22;24727;51.974;20.868;2022-09-16T16:17:16;14.20;1.00
38938;DHT22;24727;51.974;20.868;2022-09-16T16:19:43;14.20;1.00
38938;DHT22;24727;51.974;20.868;2022-09-16T16:22:12;14.10;1.00
38938;DHT22;24727;51.974;20.868;2022-09-16T16:24:39;14.00;1.00
38938;DHT22;24727;51.974;20.868;2022-09-16T16:27:06;13.90;1.00
38938;DHT22;24727;51.974;20.868;2022-09-16T16:29:33;13.80;1.00
38938;DHT22;24727;51.974;20.868;2022-09-16T16:32:08;13.60;1.00
38938;DHT22;24727;51.974;20.868;2022-09-16T16:34:39;13.50;1.00
38938;DHT22;24727;51.974;20.868;2022-09-16T16:37:06;13.40;1.00
38938;DHT22;24727;51.974;20.868;2022-09-16T16:39:34;13.40;1.00
38938;DHT22;24727;51.974;20.868;2022-09-16T16:42:00;13.40;1.00
38938;DHT22;24727;51.974;20.868;2022-09-16T16:44:27;13.50;1.00
38938;DHT22;24727;51.974;20.868;2022-09-16T16:46:54;13.50;1.00
38938;DHT22;24727;51.974;20.868;2022-09-16T16:49:21;13.70;1.00
38938;DHT22;24727;51.974;20.868;2022-09-16T16:51:49;13.70;1.00
38938;DHT22;24727;51.974;20.868;2022-09-16T16:54:17;13.70;1.00
38938;DHT22;24727;51.974;20.868;2022-09-16T16:56:45;13.60;1.00
38938;DHT22;24727;51.974;20.868;2022-09-16T16:59:14;13.50;1.00
38938;DHT22;24727;51.974;20.868;2022-09-16T17:01:42;13.50;1.00
38938;DHT22;24727;51.974;20.868;2022-09-16T17:04:09;13.60;1.00
38938;DHT22;24727;51.974;20.868;2022-09-16T17:06:35;13.50;1.00
38938;DHT22;24727;51.974;20.868;2022-09-16T17:09:04;13.40;1.00
38938;DHT22;24727;51.974;20.868;2022-09-16T17:11:31;13.20;1.00
38938;DHT22;24727;51.974;20.868;2022-09-16T17:14:07;13.10;1.00
38938;DHT22;24727;51.974;20.868;2022-09-16T17:16:33;12.80;1.00
38938;DHT22;24727;51.974;20.868;2022-09-16T17:19:01;12.60;1.00
38938;DHT22;24727;51.974;20.868;2022-09-16T17:21:32;12.40;1.00
38938;DHT22;24727;51.974;20.868;2022-09-16T17:23:59;12.40;1.00
38938;DHT22;24727;51.974;20.868;2022-09-16T17:26:26;12.30;1.00
38938;DHT22;24727;51.974;20.868;2022-09-16T17:28:53;12.20;1.00
38938;DHT22;24727;51.974;20.868;2022-09-16T17:31:29;12.20;1.00
38938;DHT22;24727;51.974;20.868;2022-09-16T17:33:59;12.10;1.00
38938;DHT22;24727;51.974;20.868;2022-09-16T17:36:30;12.00;1.00
38938;DHT22;24727;51.974;20.868;2022-09-16T17:38:58;12.00;1.00
38938;DHT22;24727;51.974;20.868;2022-09-16T17:41:25;11.90;1.00
38938;DHT22;24727;51.974;20.868;2022-09-16T17:43:57;11.80;1.00
38938;DHT22;24727;51.974;20.868;2022-09-16T17:46:25;11.80;1.00
38938;DHT22;24727;51.974;20.868;2022-09-16T17:49:04;11.80;1.00
38938;DHT22;24727;51.974;20.868;2022-09-16T17:51:32;11.70;1.00
38938;DHT22;24727;51.974;20.868;2022-09-16T17:53:58;11.70;1.00
38938;DHT22;24727;51.974;20.868;2022-09-16T17:56:25;11.70;1.00
38938;DHT22;24727;51.974;20.868;2022-09-16T17:58:52;11.60;1.00
38938;DHT22;24727;51.974;20.868;2022-09-16T18:01:23;11.60;1.00
38938;DHT22;24727;51.974;20.868;2022-09-16T18:03:52;11.60;1.00
38938;DHT22;24727;51.974;20.868;2022-09-16T18:06:29;11.60;1.00
38938;DHT22;24727;51.974;20.868;2022-09-16T18:08:58;11.60;1.00
38938;DHT22;24727;51.974;20.868;2022-09-16T18:11:25;11.50;1.00
38938;DHT22;24727;51.974;20.868;2022-09-16T18:13:58;11.50;1.00
38938;DHT22;24727;51.974;20.868;2022-09-16T18:16:25;11.60;1.00
38938;DHT22;24727;51.974;20.868;2022-09-16T18:18:53;11.50;1.00
38938;DHT22;24727;51.974;20.868;2022-09-16T18:21:20;11.50;1.00
38938;DHT22;24727;51.974;20.868;2022-09-16T18:23:53;11.40;1.00
38938;DHT22;24727;51.974;20.868;2022-09-16T18:26:21;11.30;1.00
38938;DHT22;24727;51.974;20.868;2022-09-16T18:28:48;11.30;1.00
38938;DHT22;24727;51.974;20.868;2022-09-16T18:31:18;11.20;1.00
38938;DHT22;24727;51.974;20.868;2022-09-16T18:33:44;11.10;1.00
38938;DHT22;24727;51.974;20.868;2022-09-16T18:36:14;11.10;1.00
38938;DHT22;24727;51.974;20.868;2022-09-16T18:38:41;11.00;1.00
38938;DHT22;24727;51.974;20.868;2022-09-16T18:41:11;10.90;1.00
38938;DHT22;24727;51.974;20.868;2022-09-16T18:43:40;10.80;1.00
38938;DHT22;24727;51.974;20.868;2022-09-16T18:46:19;10.80;1.00
38938;DHT22;24727;51.974;20.868;2022-09-16T18:48:47;10.70;1.00
38938;DHT22;24727;51.974;20.868;2022-09-16T18:51:37;10.70;1.00
38938;DHT22;24727;51.974;20.868;2022-09-16T18:54:09;10.80;1.00
38938;DHT22;24727;51.974;20.868;2022-09-16T18:56:36;10.70;1.00
38938;DHT22;24727;51.974;20.868;2022-09-16T18:59:11;10.70;1.00
38938;DHT22;24727;51.974;20.868;2022-09-16T19:01:39;10.60;1.00
38938;DHT22;24727;51.974;20.868;2022-09-16T19:04:09;10.60;1.00